createdAt,value
2019-02-17T00:02:40.939Z,1018.37
2019-02-17T00:07:37.086Z,1018.29
2019-02-17T00:12:32.809Z,1018.21
2019-02-17T00:17:29.153Z,1018.34
2019-02-17T00:22:24.838Z,1018.31
2019-02-17T00:27:21.131Z,1018.24
2019-02-17T00:32:17.494Z,1018.14
2019-02-17T00:37:12.671Z,1018.22
2019-02-17T00:42:09.703Z,1018.13
2019-02-17T00:47:06.024Z,1018.18
2019-02-17T00:52:01.365Z,1018.19
2019-02-17T00:56:56.990Z,1018.22
2019-02-17T01:01:53.608Z,1018.15
2019-02-17T01:06:49.174Z,1018.04
2019-02-17T01:11:45.069Z,1018.11
2019-02-17T01:16:41.434Z,1018.12
2019-02-17T01:21:37.232Z,1018.12
2019-02-17T01:26:32.724Z,1018.01
2019-02-17T01:31:29.397Z,1018.03
2019-02-17T01:36:25.704Z,1017.91
2019-02-17T01:41:22.066Z,1017.82
2019-02-17T01:46:17.676Z,1017.83
2019-02-17T01:51:13.374Z,1017.70
2019-02-17T01:56:09.190Z,1017.78
2019-02-17T02:01:04.854Z,1017.70
2019-02-17T02:06:00.590Z,1017.77
2019-02-17T02:10:56.173Z,1017.72
2019-02-17T02:15:52.477Z,1017.60
2019-02-17T02:20:47.739Z,1017.65
2019-02-17T02:25:44.437Z,1017.63
2019-02-17T02:30:39.715Z,1017.58
2019-02-17T02:35:35.957Z,1017.49
2019-02-17T02:40:31.655Z,1017.45
2019-02-17T02:45:27.874Z,1017.39
2019-02-17T02:50:23.570Z,1017.46
2019-02-17T02:55:21.241Z,1017.44
2019-02-17T03:00:16.554Z,1017.43
2019-02-17T03:05:11.957Z,1017.48
2019-02-17T03:10:07.664Z,1017.56
2019-02-17T03:15:03.402Z,1017.46
2019-02-17T03:19:59.008Z,1017.55
2019-02-17T03:24:54.751Z,1017.39
2019-02-17T03:29:51.329Z,1017.42
2019-02-17T03:34:47.348Z,1017.38
2019-02-17T03:39:44.026Z,1017.34
2019-02-17T03:44:39.481Z,1017.26
2019-02-17T03:49:34.861Z,1017.31
2019-02-17T03:54:29.924Z,1017.22
2019-02-17T03:59:26.858Z,1017.19
2019-02-17T04:04:23.145Z,1017.20
2019-02-17T04:09:19.455Z,1017.17
2019-02-17T04:14:15.618Z,1017.07
2019-02-17T04:19:11.685Z,1017.06
2019-02-17T04:24:07.374Z,1017.01
2019-02-17T04:29:03.011Z,1017.03
2019-02-17T04:33:59.245Z,1017.05
2019-02-17T04:38:54.949Z,1017.03
2019-02-17T04:43:50.658Z,1017.01
2019-02-17T04:48:47.424Z,1016.83
2019-02-17T04:53:43.216Z,1016.83
2019-02-17T04:58:38.800Z,1016.87
2019-02-17T05:03:34.897Z,1016.83
2019-02-17T05:08:31.022Z,1016.76
2019-02-17T05:13:26.515Z,1016.69
2019-02-17T05:18:21.865Z,1016.73
2019-02-17T05:23:17.481Z,1016.81
2019-02-17T05:28:13.000Z,1016.82
2019-02-17T05:33:08.974Z,1016.61
2019-02-17T05:38:06.059Z,1016.57
2019-02-17T05:43:02.431Z,1016.57
2019-02-17T05:47:57.751Z,1016.54
2019-02-17T05:52:53.425Z,1016.53
2019-02-17T05:57:49.307Z,1016.52
2019-02-17T06:02:45.777Z,1016.45
2019-02-17T06:07:41.426Z,1016.49
2019-02-17T06:12:36.962Z,1016.50
2019-02-17T06:17:32.993Z,1016.57
2019-02-17T06:22:28.856Z,1016.48
2019-02-17T06:27:25.448Z,1016.43
2019-02-17T06:32:20.887Z,1016.50
2019-02-17T06:37:17.450Z,1016.47
2019-02-17T06:42:12.645Z,1016.54
2019-02-17T06:47:08.352Z,1016.48
2019-02-17T06:52:03.873Z,1016.52
2019-02-17T06:56:59.506Z,1016.61
2019-02-17T07:01:54.965Z,1016.62
2019-02-17T07:06:50.427Z,1016.62
2019-02-17T07:11:46.173Z,1016.60
2019-02-17T07:16:42.718Z,1016.53
2019-02-17T07:21:37.947Z,1016.62
2019-02-17T07:26:34.276Z,1016.59
2019-02-17T07:31:35.041Z,1016.59
2019-02-17T07:36:29.878Z,1016.63
2019-02-17T07:41:26.163Z,1016.65
2019-02-17T07:46:21.759Z,1016.60
2019-02-17T07:51:17.565Z,1016.64
2019-02-17T07:56:13.529Z,1016.46
2019-02-17T08:01:09.796Z,1016.48
2019-02-17T08:06:05.633Z,1016.46
2019-02-17T08:11:03.969Z,1016.48
2019-02-17T08:15:59.193Z,1016.51
2019-02-17T08:20:54.939Z,1016.49
2019-02-17T08:25:50.795Z,1016.46
2019-02-17T08:30:46.544Z,1016.53
2019-02-17T08:35:42.373Z,1016.42
2019-02-17T08:40:37.690Z,1016.40
2019-02-17T08:45:33.580Z,1016.34
2019-02-17T08:50:29.787Z,1016.44
2019-02-17T08:55:25.472Z,1016.28
2019-02-17T09:00:21.314Z,1016.30
2019-02-17T09:05:17.214Z,1016.33
2019-02-17T09:10:13.215Z,1016.33
2019-02-17T09:15:09.523Z,1016.21
2019-02-17T09:20:04.749Z,1016.26
2019-02-17T09:25:00.638Z,1016.18
2019-02-17T09:29:56.774Z,1016.08
2019-02-17T09:34:53.604Z,1016.05
2019-02-17T09:39:49.392Z,1015.93
2019-02-17T09:44:45.042Z,1016.01
2019-02-17T09:49:41.222Z,1015.94
2019-02-17T09:54:38.064Z,1015.98
2019-02-17T09:59:34.624Z,1015.96
2019-02-17T10:04:30.455Z,1015.98
2019-02-17T10:09:26.441Z,1015.96
2019-02-17T10:14:23.304Z,1015.89
2019-02-17T10:19:19.033Z,1015.75
2019-02-17T10:24:15.905Z,1015.81
2019-02-17T10:29:13.423Z,1015.74
2019-02-17T10:34:09.130Z,1015.69
2019-02-17T10:39:06.302Z,1015.55
2019-02-17T10:44:02.273Z,1015.53
2019-02-17T10:48:59.044Z,1015.55
2019-02-17T10:53:55.117Z,1015.50
2019-02-17T10:58:51.389Z,1015.45
2019-02-17T11:03:47.552Z,1015.38
2019-02-17T11:08:43.512Z,1015.36
2019-02-17T11:13:40.691Z,1015.29
2019-02-17T11:18:36.345Z,1015.22
2019-02-17T11:23:32.764Z,1015.13
2019-02-17T11:28:28.796Z,1015.06
2019-02-17T11:33:25.026Z,1015.01
2019-02-17T11:38:22.121Z,1014.93
2019-02-17T11:43:18.136Z,1014.81
2019-02-17T11:48:14.284Z,1014.85
2019-02-17T11:53:11.257Z,1014.75
2019-02-17T11:58:06.650Z,1014.80
2019-02-17T12:03:07.914Z,1014.70
2019-02-17T12:08:01.326Z,1014.65
2019-02-17T12:12:57.177Z,1014.55
2019-02-17T12:17:54.056Z,1014.45
2019-02-17T12:22:49.194Z,1014.41
2019-02-17T12:27:46.101Z,1014.34
2019-02-17T12:32:42.790Z,1014.27
2019-02-17T12:37:38.217Z,1014.20
2019-02-17T12:42:33.753Z,1014.14
2019-02-17T12:47:29.977Z,1014.04
2019-02-17T12:52:27.017Z,1013.98
2019-02-17T12:57:22.907Z,1013.97
2019-02-17T13:02:19.750Z,1013.97
2019-02-17T13:07:15.371Z,1013.96
2019-02-17T13:12:10.910Z,1013.86
2019-02-17T13:17:07.320Z,1013.79
2019-02-17T13:22:04.140Z,1013.72
2019-02-17T13:26:59.462Z,1013.72
2019-02-17T13:31:56.095Z,1013.65
2019-02-17T13:36:51.582Z,1013.65
2019-02-17T13:41:47.484Z,1013.57
2019-02-17T13:46:43.442Z,1013.60
2019-02-17T13:51:39.257Z,1013.62
2019-02-17T13:56:36.321Z,1013.44
2019-02-17T14:01:31.876Z,1013.43
2019-02-17T14:06:27.748Z,1013.44
2019-02-17T14:11:23.816Z,1013.44
2019-02-17T14:16:19.508Z,1013.23
2019-02-17T14:21:16.400Z,1013.31
2019-02-17T14:26:12.861Z,1013.33
2019-02-17T14:31:08.372Z,1013.31
2019-02-17T14:36:04.152Z,1013.28
2019-02-17T14:40:59.825Z,1013.29
2019-02-17T14:45:55.619Z,1013.36
2019-02-17T14:50:52.603Z,1013.42
2019-02-17T14:55:48.026Z,1013.23
2019-02-17T15:00:44.998Z,1013.21
2019-02-17T15:05:41.908Z,1013.12
2019-02-17T15:10:38.200Z,1013.20
2019-02-17T15:15:33.892Z,1013.13
2019-02-17T15:20:30.445Z,1012.98
2019-02-17T15:25:25.954Z,1012.97
2019-02-17T15:30:21.469Z,1012.92
2019-02-17T15:35:17.576Z,1012.86
2019-02-17T15:40:13.484Z,1012.83
2019-02-17T15:45:09.080Z,1012.82
2019-02-17T15:50:04.713Z,1012.70
2019-02-17T15:55:00.430Z,1012.66
2019-02-17T15:59:55.916Z,1012.74
2019-02-17T16:04:51.572Z,1012.72
2019-02-17T16:09:48.126Z,1012.75
2019-02-17T16:14:43.635Z,1012.69
2019-02-17T16:19:39.324Z,1012.72
2019-02-17T16:24:35.048Z,1012.73
2019-02-17T16:29:30.662Z,1012.75
2019-02-17T16:34:26.303Z,1012.68
2019-02-17T16:39:22.256Z,1012.64
2019-02-17T16:44:18.050Z,1012.66
2019-02-17T16:49:13.500Z,1012.75
2019-02-17T16:54:09.107Z,1012.75
2019-02-17T16:59:04.081Z,1012.72
2019-02-17T17:03:59.657Z,1012.74
2019-02-17T17:08:56.216Z,1012.84
2019-02-17T17:13:51.394Z,1012.78
2019-02-17T17:18:47.049Z,1012.77
2019-02-17T17:23:43.137Z,1012.76
2019-02-17T17:28:39.980Z,1012.84
2019-02-17T17:33:35.653Z,1012.74
2019-02-17T17:38:31.473Z,1012.84
2019-02-17T17:43:28.145Z,1012.88
2019-02-17T17:48:24.069Z,1012.90
2019-02-17T17:53:19.448Z,1012.81
2019-02-17T17:58:15.184Z,1012.90
2019-02-17T18:03:11.869Z,1012.94
2019-02-17T18:08:07.215Z,1012.85
2019-02-17T18:13:03.524Z,1012.98
2019-02-17T18:18:00.989Z,1012.98
2019-02-17T18:22:56.378Z,1012.94
2019-02-17T18:27:52.844Z,1013.04
2019-02-17T18:32:48.039Z,1013.01
2019-02-17T18:37:43.483Z,1012.99
2019-02-17T18:42:39.141Z,1013.05
2019-02-17T18:47:34.627Z,1013.08
2019-02-17T18:52:31.297Z,1013.17
2019-02-17T18:57:27.643Z,1013.16
2019-02-17T19:02:24.483Z,1013.22
2019-02-17T19:07:19.895Z,1013.20
2019-02-17T19:12:15.232Z,1013.09
2019-02-17T19:17:10.918Z,1013.12
2019-02-17T19:22:06.723Z,1013.15
2019-02-17T19:27:03.235Z,1013.02
2019-02-17T19:31:59.001Z,1013.03
2019-02-17T19:36:54.725Z,1012.97
2019-02-17T19:41:50.897Z,1013.07
2019-02-17T19:46:46.542Z,1013.06
2019-02-17T19:51:42.050Z,1013.10
2019-02-17T19:56:39.844Z,1013.13
2019-02-17T20:01:34.552Z,1013.11
2019-02-17T20:06:31.303Z,1013.14
2019-02-17T20:11:26.568Z,1013.19
2019-02-17T20:16:22.068Z,1013.32
2019-02-17T20:21:17.781Z,1013.28
2019-02-17T20:26:13.738Z,1013.32
2019-02-17T20:31:09.185Z,1013.37
2019-02-17T20:36:05.370Z,1013.39
2019-02-17T20:41:02.172Z,1013.41
2019-02-17T20:45:58.064Z,1013.37
2019-02-17T20:50:53.632Z,1013.43
2019-02-17T20:55:49.460Z,1013.52
2019-02-17T21:00:46.157Z,1013.51
2019-02-17T21:05:42.253Z,1013.51
2019-02-17T21:10:37.137Z,1013.51
2019-02-17T21:15:32.726Z,1013.55
2019-02-17T21:20:28.272Z,1013.49
2019-02-17T21:25:24.051Z,1013.53
2019-02-17T21:30:20.909Z,1013.59
2019-02-17T21:35:16.534Z,1013.56
2019-02-17T21:40:13.361Z,1013.56
2019-02-17T21:45:09.968Z,1013.56
2019-02-17T21:50:06.853Z,1013.63
2019-02-17T21:55:02.447Z,1013.52
2019-02-17T21:59:58.244Z,1013.51
2019-02-17T22:04:54.162Z,1013.58
2019-02-17T22:09:49.776Z,1013.61
2019-02-17T22:14:46.436Z,1013.64
2019-02-17T22:19:41.719Z,1013.60
2019-02-17T22:24:37.410Z,1013.58
2019-02-17T22:29:33.565Z,1013.50
2019-02-17T22:34:29.113Z,1013.58
2019-02-17T22:39:24.723Z,1013.51
2019-02-17T22:44:20.736Z,1013.51
2019-02-17T22:49:16.998Z,1013.56
2019-02-17T22:54:13.678Z,1013.58
2019-02-17T22:59:10.750Z,1013.57
2019-02-17T23:04:06.330Z,1013.48
2019-02-17T23:09:02.035Z,1013.53
2019-02-17T23:13:58.687Z,1013.62
2019-02-17T23:18:54.167Z,1013.54
2019-02-17T23:23:50.776Z,1013.53
2019-02-17T23:28:46.815Z,1013.55
2019-02-17T23:33:42.599Z,1013.56
2019-02-17T23:38:39.294Z,1013.50
2019-02-17T23:43:34.438Z,1013.56
2019-02-17T23:48:31.104Z,1013.61
2019-02-17T23:53:26.323Z,1013.62
2019-02-17T23:58:22.301Z,1013.57
